Time;durP1;ratioP1;P1;durP2;ratioP2;P2;SDS_P1;SDS_P2;PMS_P1;PMS_P2;Temp;Humidity;BMP_temperature;BMP_pressure;BME280_temperature;BME280_humidity;BME280_pressure;Samples;Min_cycle;Max_cycle;Signal;HPM_P1;HPM_P2
2022/03/26 00:01:45;;;;;;;72.25;36.80;;;11.20;74.50;;;;;;5085110;28;20633;-66
2022/03/26 00:04:11;;;;;;;70.07;36.22;;;11.20;74.80;;;;;;5086401;28;20188;-66
2022/03/26 00:06:38;;;;;;;66.45;34.42;;;11.20;75.00;;;;;;5085537;28;20589;-68
2022/03/26 00:09:04;;;;;;;71.90;34.92;;;11.20;75.30;;;;;;5089891;28;20262;-68
2022/03/26 00:11:30;;;;;;;68.72;35.03;;;11.10;75.50;;;;;;5087709;28;20186;-67
2022/03/26 00:13:55;;;;;;;64.15;35.05;;;11.10;75.80;;;;;;5088878;28;20175;-69
2022/03/26 00:16:21;;;;;;;66.32;34.58;;;11.10;76.10;;;;;;5071082;28;20186;-66
2022/03/26 00:18:46;;;;;;;65.00;35.58;;;11.00;76.30;;;;;;5091849;28;20231;-66
2022/03/26 00:21:12;;;;;;;66.80;36.40;;;11.00;76.50;;;;;;5086839;28;20194;-67
2022/03/26 00:23:38;;;;;;;69.40;36.78;;;11.00;76.80;;;;;;5071086;28;20694;-67
2022/03/26 00:26:03;;;;;;;66.60;36.28;;;11.00;76.90;;;;;;5055302;28;20603;-68
2022/03/26 00:28:29;;;;;;;68.55;35.85;;;10.90;77.20;;;;;;5070652;28;20210;-66
2022/03/26 00:30:55;;;;;;;68.35;36.28;;;10.90;77.40;;;;;;5053736;28;20182;-68
2022/03/26 00:33:21;;;;;;;71.05;36.25;;;10.90;77.70;;;;;;5090743;28;20659;-66
2022/03/26 00:35:47;;;;;;;72.60;37.35;;;10.80;77.90;;;;;;5070928;28;20186;-67
2022/03/26 00:38:13;;;;;;;72.38;37.30;;;10.80;78.10;;;;;;5090384;28;20194;-69
2022/03/26 00:40:40;;;;;;;74.03;36.97;;;10.80;78.40;;;;;;5068215;28;20202;-68
2022/03/26 00:43:06;;;;;;;71.55;36.78;;;10.80;78.60;;;;;;5050834;28;20214;-69
2022/03/26 00:45:34;;;;;;;70.32;37.47;;;10.70;78.80;;;;;;5070186;28;20268;-67
2022/03/26 00:48:01;;;;;;;71.68;37.42;;;10.70;79.00;;;;;;5087699;28;20206;-67
2022/03/26 00:50:27;;;;;;;67.32;37.50;;;10.70;79.20;;;;;;5086614;28;20974;-69
2022/03/26 00:52:53;;;;;;;75.72;38.80;;;10.70;79.40;;;;;;5089319;28;20186;-68
2022/03/26 00:55:19;;;;;;;79.70;36.60;;;10.60;79.70;;;;;;5090148;28;20171;-67
2022/03/26 00:57:48;;;;;;;70.88;37.55;;;10.60;79.90;;;;;;5088086;28;20231;-69
2022/03/26 01:00:14;;;;;;;71.95;37.50;;;10.60;80.20;;;;;;5085883;28;20677;-67
2022/03/26 01:02:40;;;;;;;73.57;38.60;;;10.60;80.30;;;;;;5068827;28;20638;-66
2022/03/26 01:05:06;;;;;;;71.70;36.88;;;10.50;80.40;;;;;;5071920;28;20192;-67
2022/03/26 01:07:32;;;;;;;78.07;38.95;;;10.50;80.70;;;;;;5086842;28;20217;-69
2022/03/26 01:09:58;;;;;;;74.03;39.58;;;10.50;80.90;;;;;;5088680;28;20185;-67
2022/03/26 01:12:25;;;;;;;79.97;39.30;;;10.50;81.10;;;;;;5087956;28;20197;-67
2022/03/26 01:14:52;;;;;;;78.50;39.20;;;10.50;81.40;;;;;;5087159;28;20513;-67
2022/03/26 01:17:19;;;;;;;76.57;40.28;;;10.40;81.40;;;;;;5053574;28;20263;-68
2022/03/26 01:19:45;;;;;;;81.45;40.45;;;10.40;81.60;;;;;;5089119;28;20190;-68
2022/03/26 01:22:11;;;;;;;76.07;39.67;;;10.40;81.80;;;;;;5067940;28;20213;-67
2022/03/26 01:24:37;;;;;;;77.60;39.97;;;10.40;82.10;;;;;;5087844;28;20222;-66
2022/03/26 01:27:03;;;;;;;77.53;39.33;;;10.40;82.20;;;;;;5069049;28;20312;-67
2022/03/26 01:29:29;;;;;;;79.43;40.08;;;10.30;82.30;;;;;;5090609;28;20263;-68
2022/03/26 01:31:55;;;;;;;77.85;39.88;;;10.30;82.50;;;;;;5085817;28;20194;-68
2022/03/26 01:34:24;;;;;;;78.85;41.03;;;10.30;82.70;;;;;;5054713;28;20296;-69
2022/03/26 01:36:49;;;;;;;77.57;41.42;;;10.30;82.90;;;;;;5069936;28;20239;-70
2022/03/26 01:39:15;;;;;;;88.90;41.85;;;10.20;83.10;;;;;;5087691;28;20698;-67
2022/03/26 01:41:41;;;;;;;79.68;39.10;;;10.20;83.20;;;;;;5070239;28;20185;-68
2022/03/26 01:44:12;;;;;;;78.43;41.67;;;10.20;83.40;;;;;;5088855;28;20190;-68
2022/03/26 01:46:53;;;;;;;75.97;40.33;;;10.20;83.60;;;;;;5086970;28;20468;-68
2022/03/26 01:49:19;;;;;;;84.75;41.75;;;10.20;83.80;;;;;;5088226;28;20300;-67
2022/03/26 01:51:45;;;;;;;76.40;41.30;;;10.10;83.90;;;;;;5085273;28;20738;-68
2022/03/26 01:54:12;;;;;;;85.95;42.05;;;10.10;84.00;;;;;;5087131;28;20264;-66
2022/03/26 01:56:39;;;;;;;81.13;42.00;;;10.00;84.10;;;;;;5088370;28;20556;-66
2022/03/26 01:59:06;;;;;;;78.57;40.05;;;10.00;84.30;;;;;;5088752;28;20236;-67
2022/03/26 02:01:33;;;;;;;84.65;40.25;;;10.00;84.60;;;;;;5067782;28;20182;-67
2022/03/26 02:04:03;;;;;;;81.15;41.63;;;9.90;84.60;;;;;;5086195;28;20190;-67
2022/03/26 02:06:40;;;;;;;85.90;43.25;;;9.90;84.80;;;;;;5085687;28;20280;-68
2022/03/26 02:09:11;;;;;;;84.20;43.20;;;9.90;85.10;;;;;;5089840;28;20638;-68
2022/03/26 02:11:39;;;;;;;86.43;43.38;;;9.90;85.30;;;;;;5087338;28;20622;-68
2022/03/26 02:14:08;;;;;;;83.38;43.40;;;9.80;85.40;;;;;;5088788;28;20189;-69
2022/03/26 02:16:36;;;;;;;91.00;44.25;;;9.80;85.60;;;;;;5070682;28;20196;-67
2022/03/26 02:19:06;;;;;;;90.40;44.35;;;9.80;86.00;;;;;;5089183;28;20190;-66
2022/03/26 02:21:37;;;;;;;84.97;43.45;;;9.80;86.20;;;;;;5086358;28;20658;-68
2022/03/26 02:24:04;;;;;;;91.53;45.03;;;9.80;86.40;;;;;;5081146;28;20221;-69
2022/03/26 02:26:30;;;;;;;84.55;43.88;;;9.70;86.60;;;;;;5084138;28;20200;-68
2022/03/26 02:29:03;;;;;;;91.78;44.55;;;9.70;86.80;;;;;;5083702;28;20285;-68
2022/03/26 02:31:28;;;;;;;96.30;44.17;;;9.70;87.00;;;;;;5070044;28;20201;-67
2022/03/26 02:33:54;;;;;;;88.00;45.40;;;9.70;87.30;;;;;;5068385;28;20186;-68
2022/03/26 02:36:20;;;;;;;93.15;46.80;;;9.70;87.50;;;;;;5070120;28;20186;-65
2022/03/26 02:38:45;;;;;;;89.93;46.75;;;9.60;87.60;;;;;;5067615;28;20186;-66
2022/03/26 02:41:11;;;;;;;95.65;46.78;;;9.60;88.00;;;;;;5086589;28;20265;-66
2022/03/26 02:43:37;;;;;;;94.78;46.17;;;9.60;88.20;;;;;;5087148;28;20220;-67
2022/03/26 02:46:05;;;;;;;97.78;47.92;;;9.60;88.50;;;;;;5084996;28;20197;-66
2022/03/26 02:48:31;;;;;;;100.82;47.85;;;9.60;88.60;;;;;;5086709;28;20210;-68
2022/03/26 02:50:57;;;;;;;98.50;49.40;;;9.60;88.90;;;;;;5086730;28;20178;-66
2022/03/26 02:53:23;;;;;;;100.05;47.85;;;9.60;89.00;;;;;;5066702;28;20239;-67
2022/03/26 02:55:48;;;;;;;99.93;48.97;;;9.60;89.20;;;;;;5069224;28;20277;-69
2022/03/26 02:58:14;;;;;;;98.95;48.72;;;9.50;89.40;;;;;;5085814;28;20228;-68
2022/03/26 03:00:40;;;;;;;98.70;48.35;;;9.50;89.60;;;;;;5085217;28;20190;-68
2022/03/26 03:03:08;;;;;;;96.22;47.88;;;9.50;89.80;;;;;;5084430;28;20197;-69
2022/03/26 03:05:34;;;;;;;95.30;48.05;;;9.50;90.00;;;;;;5085361;28;20208;-66
2022/03/26 03:08:00;;;;;;;99.63;48.63;;;9.50;90.00;;;;;;5069739;28;20230;-68
2022/03/26 03:10:27;;;;;;;103.57;49.08;;;9.40;90.00;;;;;;5087925;28;20185;-67
2022/03/26 03:12:53;;;;;;;111.47;50.17;;;9.40;90.10;;;;;;5067579;28;20189;-67
2022/03/26 03:15:19;;;;;;;101.85;49.47;;;9.40;90.20;;;;;;5088568;28;20750;-68
2022/03/26 03:17:47;;;;;;;100.25;49.85;;;9.40;90.40;;;;;;5067087;28;20201;-67
2022/03/26 03:20:14;;;;;;;104.90;56.55;;;9.40;90.40;;;;;;5065821;28;20425;-68
2022/03/26 03:22:42;;;;;;;105.55;56.60;;;9.80;91.00;;;;;;5085329;28;21539;-66
2022/03/26 03:25:08;;;;;;;105.35;57.58;;;10.10;90.70;;;;;;5067406;28;20416;-66
2022/03/26 03:27:35;;;;;;;102.03;57.00;;;10.30;90.60;;;;;;5066466;28;20423;-68
2022/03/26 03:30:00;;;;;;;101.60;57.53;;;10.40;90.20;;;;;;5087309;28;20428;-68
2022/03/26 03:32:26;;;;;;;100.18;55.67;;;10.50;90.20;;;;;;5066186;28;20416;-67
2022/03/26 03:34:52;;;;;;;104.70;56.80;;;10.50;90.20;;;;;;5069256;28;20440;-68
2022/03/26 03:37:18;;;;;;;102.72;57.55;;;10.50;90.10;;;;;;5067046;28;20425;-69
2022/03/26 03:39:44;;;;;;;103.85;57.50;;;10.60;90.10;;;;;;5086218;28;20478;-67
2022/03/26 03:42:10;;;;;;;105.80;58.80;;;10.60;90.10;;;;;;5091263;28;20412;-67
2022/03/26 03:44:36;;;;;;;108.38;58.78;;;10.60;90.10;;;;;;5089005;28;20492;-69
2022/03/26 03:47:02;;;;;;;104.70;58.90;;;10.60;90.00;;;;;;5073175;28;20978;-67
2022/03/26 03:49:31;;;;;;;117.95;61.83;;;10.60;89.80;;;;;;5066606;28;20468;-67
2022/03/26 03:51:58;;;;;;;108.32;54.40;;;10.60;90.00;;;;;;5090796;28;20550;-68
2022/03/26 03:54:24;;;;;;;109.90;55.17;;;10.20;90.20;;;;;;5071669;28;20610;-69
2022/03/26 03:56:50;;;;;;;110.00;53.65;;;9.90;90.60;;;;;;5092266;28;20213;-70
2022/03/26 03:59:15;;;;;;;113.63;56.08;;;9.70;90.90;;;;;;5089498;28;20684;-67
2022/03/26 04:01:41;;;;;;;111.63;55.55;;;9.60;91.00;;;;;;5073266;28;20182;-70
2022/03/26 04:04:07;;;;;;;120.10;56.35;;;9.50;91.10;;;;;;5089147;28;20189;-68
2022/03/26 04:06:32;;;;;;;114.75;55.15;;;9.40;91.20;;;;;;5090270;28;20182;-69
2022/03/26 04:08:58;;;;;;;119.70;56.45;;;9.30;91.30;;;;;;5071594;28;20226;-68
2022/03/26 04:11:24;;;;;;;120.25;56.50;;;9.20;91.40;;;;;;5091369;28;20231;-70
2022/03/26 04:13:53;;;;;;;118.40;57.00;;;9.20;91.40;;;;;;5089707;28;20185;-70
2022/03/26 04:16:19;;;;;;;119.60;57.45;;;9.10;91.50;;;;;;5071787;28;20762;-70
2022/03/26 04:18:45;;;;;;;124.22;56.47;;;9.00;91.90;;;;;;5069450;28;20205;-68
2022/03/26 04:21:10;;;;;;;125.45;57.92;;;9.00;91.60;;;;;;5070723;28;20182;-69
2022/03/26 04:23:36;;;;;;;126.30;59.50;;;8.90;91.60;;;;;;5069846;28;20218;-69
2022/03/26 04:26:02;;;;;;;126.15;59.28;;;8.90;91.70;;;;;;5090563;28;20186;-69
2022/03/26 04:28:28;;;;;;;127.53;59.63;;;8.80;91.80;;;;;;5070256;28;20316;-69
2022/03/26 04:30:54;;;;;;;131.88;59.63;;;8.80;91.80;;;;;;5086751;28;20519;-68
2022/03/26 04:33:20;;;;;;;130.55;58.17;;;8.80;91.90;;;;;;5070780;28;20198;-69
2022/03/26 04:35:46;;;;;;;141.18;61.33;;;8.70;92.00;;;;;;5071155;28;20185;-69
2022/03/26 04:38:11;;;;;;;127.55;59.95;;;8.70;92.10;;;;;;5070509;28;20305;-70
2022/03/26 04:40:37;;;;;;;135.38;61.33;;;8.70;92.20;;;;;;5089157;28;20984;-70
2022/03/26 04:43:03;;;;;;;142.25;62.50;;;8.60;92.20;;;;;;5070506;28;20231;-70
2022/03/26 04:45:32;;;;;;;132.70;61.10;;;8.60;92.30;;;;;;5089595;28;20555;-68
2022/03/26 04:47:58;;;;;;;145.25;61.85;;;8.60;92.30;;;;;;5071489;28;20189;-68
2022/03/26 04:50:24;;;;;;;151.30;65.18;;;8.50;92.40;;;;;;5072056;28;20327;-68
2022/03/26 04:52:50;;;;;;;147.00;64.75;;;8.50;92.50;;;;;;5085146;28;20650;-69
2022/03/26 04:55:18;;;;;;;145.38;66.68;;;8.50;92.50;;;;;;5067561;28;20220;-69
2022/03/26 04:57:47;;;;;;;150.15;65.20;;;8.50;92.60;;;;;;5054420;28;20206;-71
2022/03/26 05:00:15;;;;;;;136.68;61.63;;;8.50;92.70;;;;;;5072350;28;20190;-68
2022/03/26 05:02:41;;;;;;;140.77;63.38;;;8.50;92.70;;;;;;5069613;28;20188;-68
2022/03/26 05:05:09;;;;;;;145.63;64.57;;;8.40;92.80;;;;;;5090662;28;20213;-70
2022/03/26 05:07:47;;;;;;;147.98;63.60;;;8.50;92.90;;;;;;5069906;28;20399;-68
2022/03/26 05:10:21;;;;;;;143.70;65.88;;;8.40;92.90;;;;;;5087885;28;20185;-70
2022/03/26 05:12:47;;;;;;;145.00;62.83;;;8.40;92.90;;;;;;5069253;28;20178;-67
2022/03/26 05:15:14;;;;;;;139.63;63.63;;;8.40;92.90;;;;;;5069904;28;20583;-69
2022/03/26 05:17:41;;;;;;;148.15;66.60;;;8.30;92.90;;;;;;5069540;28;20208;-70
2022/03/26 05:20:08;;;;;;;145.13;65.80;;;8.30;93.00;;;;;;5090791;28;20182;-68
2022/03/26 05:22:35;;;;;;;146.82;64.72;;;8.30;93.10;;;;;;5068780;28;20186;-69
2022/03/26 05:25:02;;;;;;;150.48;68.70;;;8.30;93.30;;;;;;5088923;28;20230;-66
2022/03/26 05:27:28;;;;;;;154.18;68.63;;;8.30;93.30;;;;;;5069159;28;20182;-68
2022/03/26 05:29:54;;;;;;;156.52;69.97;;;8.30;93.30;;;;;;5072511;28;20193;-69
2022/03/26 05:32:19;;;;;;;163.18;70.30;;;8.30;93.50;;;;;;5085034;28;20880;-65
2022/03/26 05:34:45;;;;;;;158.38;69.10;;;8.30;93.50;;;;;;5066415;28;20182;-67
2022/03/26 05:37:12;;;;;;;147.55;67.55;;;8.20;93.50;;;;;;5081899;28;20647;-67
2022/03/26 05:39:38;;;;;;;158.23;68.55;;;8.20;93.60;;;;;;5082124;28;20237;-69
2022/03/26 05:42:04;;;;;;;152.52;67.15;;;8.20;93.60;;;;;;5062519;28;20235;-68
2022/03/26 05:44:30;;;;;;;157.55;69.85;;;8.20;93.80;;;;;;5086380;28;20191;-67
2022/03/26 05:46:56;;;;;;;150.27;67.80;;;8.20;94.10;;;;;;5068309;28;20567;-68
2022/03/26 05:49:23;;;;;;;159.15;70.53;;;8.20;93.80;;;;;;5070211;28;20548;-68
2022/03/26 05:51:49;;;;;;;161.98;70.10;;;8.20;93.80;;;;;;5086452;28;20535;-67
2022/03/26 05:54:16;;;;;;;170.07;69.88;;;8.20;93.90;;;;;;5071844;28;20190;-68
2022/03/26 05:56:51;;;;;;;182.80;73.75;;;8.20;94.00;;;;;;5066472;28;20191;-66
2022/03/26 05:59:20;;;;;;;166.88;71.95;;;8.20;94.00;;;;;;5078836;28;20217;-66
2022/03/26 06:01:46;;;;;;;160.13;70.18;;;8.20;94.10;;;;;;5064263;28;20269;-67
2022/03/26 06:04:12;;;;;;;170.98;74.38;;;8.20;94.10;;;;;;5064199;28;20273;-67
2022/03/26 06:06:38;;;;;;;162.65;72.80;;;8.20;94.10;;;;;;5088752;28;20614;-66
2022/03/26 06:09:03;;;;;;;154.63;71.13;;;8.20;94.20;;;;;;5084312;28;20199;-69
2022/03/26 06:11:29;;;;;;;175.25;72.70;;;8.20;94.30;;;;;;5089553;28;20541;-70
2022/03/26 06:13:55;;;;;;;170.80;73.28;;;8.20;94.40;;;;;;5085719;28;20546;-70
2022/03/26 06:16:21;;;;;;;174.02;74.65;;;8.30;94.40;;;;;;5087701;28;20280;-64
2022/03/26 06:18:47;;;;;;;158.38;72.72;;;8.30;94.40;;;;;;5068824;28;20252;-69
2022/03/26 06:21:13;;;;;;;171.75;71.93;;;8.30;94.40;;;;;;5069688;28;20562;-70
2022/03/26 06:23:38;;;;;;;166.20;75.15;;;8.30;94.50;;;;;;5084677;28;20253;-67
2022/03/26 06:26:04;;;;;;;168.85;74.50;;;8.30;94.60;;;;;;5087482;28;20269;-69
2022/03/26 06:28:30;;;;;;;171.93;75.25;;;8.30;94.60;;;;;;5069198;28;20194;-66
2022/03/26 06:30:55;;;;;;;177.52;77.35;;;8.40;94.70;;;;;;5069188;28;20189;-70
2022/03/26 06:33:22;;;;;;;182.73;79.00;;;8.40;94.80;;;;;;5086140;28;20200;-69
2022/03/26 06:35:48;;;;;;;178.18;79.57;;;8.40;94.80;;;;;;5085828;28;20307;-69
2022/03/26 06:38:14;;;;;;;172.88;78.07;;;8.50;94.90;;;;;;5086053;28;20209;-69
2022/03/26 06:40:40;;;;;;;180.23;80.93;;;8.60;95.00;;;;;;5070815;28;20181;-66
2022/03/26 06:43:06;;;;;;;176.80;80.55;;;8.60;95.10;;;;;;5085846;28;20268;-69
2022/03/26 06:45:33;;;;;;;184.38;80.65;;;8.70;95.10;;;;;;5083216;28;20174;-66
2022/03/26 06:47:59;;;;;;;177.15;80.18;;;8.70;95.20;;;;;;5078157;28;20186;-68
2022/03/26 06:50:25;;;;;;;183.27;81.85;;;8.70;95.20;;;;;;5061125;28;20670;-67
2022/03/26 06:52:52;;;;;;;171.85;80.60;;;8.70;95.30;;;;;;5067074;28;20269;-70
2022/03/26 06:55:18;;;;;;;182.07;81.88;;;8.80;95.40;;;;;;5052750;28;20197;-69
2022/03/26 06:57:44;;;;;;;186.20;94.90;;;8.90;95.50;;;;;;5081799;28;20996;-70
2022/03/26 07:00:15;;;;;;;183.80;93.47;;;9.40;96.20;;;;;;5084412;28;20433;-67
2022/03/26 07:02:41;;;;;;;184.48;95.80;;;9.80;95.90;;;;;;5073928;28;20414;-65
2022/03/26 07:05:08;;;;;;;180.27;95.07;;;10.10;95.50;;;;;;5063461;28;20407;-68
2022/03/26 07:07:33;;;;;;;178.43;93.88;;;10.30;95.30;;;;;;5063193;28;20419;-67
2022/03/26 07:09:59;;;;;;;175.80;92.73;;;10.50;95.10;;;;;;5067597;28;20471;-71
2022/03/26 07:12:26;;;;;;;177.25;92.55;;;10.60;94.70;;;;;;5085860;28;20859;-68
2022/03/26 07:14:53;;;;;;;174.75;91.15;;;10.70;94.50;;;;;;5069920;28;20401;-64
2022/03/26 07:17:18;;;;;;;169.98;90.90;;;10.80;94.20;;;;;;5082344;28;20452;-66
2022/03/26 07:19:47;;;;;;;171.55;88.75;;;10.90;94.20;;;;;;5082315;28;20447;-67
2022/03/26 07:22:12;;;;;;;169.23;88.50;;;11.10;93.90;;;;;;5079892;28;20408;-69
2022/03/26 07:24:38;;;;;;;157.43;85.83;;;11.20;93.60;;;;;;5063463;28;21172;-68
2022/03/26 07:27:04;;;;;;;152.67;81.83;;;11.30;93.30;;;;;;5083636;28;20454;-65
2022/03/26 07:29:29;;;;;;;162.27;85.30;;;11.40;93.10;;;;;;5077913;28;20535;-67
2022/03/26 07:31:55;;;;;;;147.90;78.77;;;11.50;93.00;;;;;;5077261;28;20397;-66
2022/03/26 07:34:22;;;;;;;127.82;69.28;;;11.60;92.60;;;;;;5064645;28;20412;-67
2022/03/26 07:36:48;;;;;;;139.90;73.87;;;11.70;92.30;;;;;;5081581;28;20405;-67
2022/03/26 07:39:14;;;;;;;146.10;75.78;;;11.80;92.10;;;;;;5080501;28;20413;-70
2022/03/26 07:41:41;;;;;;;137.15;68.70;;;11.90;91.80;;;;;;5065656;28;20957;-73
2022/03/26 07:44:07;;;;;;;136.68;64.20;;;11.50;92.30;;;;;;5077759;28;20194;-67
2022/03/26 07:46:33;;;;;;;134.40;62.78;;;11.30;92.70;;;;;;5066040;28;20192;-67
2022/03/26 07:48:59;;;;;;;124.50;58.05;;;11.20;92.90;;;;;;5065477;28;20352;-69
2022/03/26 07:51:24;;;;;;;107.60;50.33;;;11.10;93.00;;;;;;5082136;28;20189;-66
2022/03/26 07:53:50;;;;;;;91.57;44.95;;;11.10;93.00;;;;;;5067122;28;20193;-65
2022/03/26 07:56:15;;;;;;;97.03;44.85;;;11.00;92.90;;;;;;5066200;28;20188;-65
2022/03/26 07:58:42;;;;;;;97.63;45.13;;;11.00;92.90;;;;;;5085390;28;20253;-66
2022/03/26 08:01:07;;;;;;;86.50;43.70;;;11.10;92.80;;;;;;5087051;28;20285;-64
2022/03/26 08:03:33;;;;;;;110.40;51.00;;;11.10;92.70;;;;;;5084882;28;20285;-67
2022/03/26 08:05:59;;;;;;;106.60;47.65;;;11.20;92.60;;;;;;5083827;28;20188;-69
2022/03/26 08:08:25;;;;;;;92.05;44.63;;;11.20;92.40;;;;;;5083226;28;20197;-72
2022/03/26 08:10:51;;;;;;;100.82;48.42;;;11.30;92.20;;;;;;5066266;28;20231;-69
2022/03/26 08:13:17;;;;;;;93.32;43.05;;;11.40;92.10;;;;;;5077908;28;20236;-70
2022/03/26 08:15:43;;;;;;;83.32;39.22;;;11.40;91.90;;;;;;5084410;28;20198;-70
2022/03/26 08:18:08;;;;;;;77.95;38.80;;;11.50;91.80;;;;;;5083153;28;20248;-69
2022/03/26 08:20:34;;;;;;;78.10;38.05;;;11.60;91.70;;;;;;5067720;28;20261;-69
2022/03/26 08:23:00;;;;;;;102.10;46.05;;;11.70;91.70;;;;;;5084435;28;20278;-66
2022/03/26 08:28:11;;;;;;;106.40;49.55;;;11.90;91.40;;;;;;5085781;28;20209;-66
2022/03/26 08:30:37;;;;;;;96.63;46.05;;;12.00;91.40;;;;;;5088625;28;20211;-67
2022/03/26 08:33:04;;;;;;;111.68;53.13;;;12.10;91.20;;;;;;5069985;28;20241;-68
2022/03/26 08:35:34;;;;;;;110.32;48.10;;;12.20;91.10;;;;;;5072250;28;20198;-70
2022/03/26 08:38:00;;;;;;;106.32;50.88;;;12.40;90.90;;;;;;5069211;28;20197;-66
2022/03/26 08:40:26;;;;;;;93.50;46.00;;;12.50;90.80;;;;;;5070745;28;20285;-69
2022/03/26 08:42:52;;;;;;;98.00;50.67;;;12.70;90.80;;;;;;5069647;28;20489;-70
2022/03/26 08:45:19;;;;;;;102.93;53.97;;;13.40;88.60;;;;;;5067755;28;20409;-67
2022/03/26 08:47:45;;;;;;;110.45;55.63;;;14.00;85.60;;;;;;5087509;28;20489;-69
2022/03/26 08:50:11;;;;;;;106.35;54.20;;;14.30;83.40;;;;;;5069072;28;20414;-68
2022/03/26 08:52:37;;;;;;;101.90;52.40;;;14.50;82.60;;;;;;5070603;28;20464;-69
2022/03/26 08:55:04;;;;;;;105.60;54.67;;;14.80;81.30;;;;;;5086734;28;20405;-69
2022/03/26 08:57:30;;;;;;;105.20;53.83;;;14.90;80.00;;;;;;5090115;28;20405;-70
2022/03/26 08:59:56;;;;;;;97.15;50.85;;;15.10;79.50;;;;;;5084496;28;20408;-67
2022/03/26 09:02:22;;;;;;;96.47;50.33;;;15.30;77.90;;;;;;5087730;28;20429;-68
2022/03/26 09:04:48;;;;;;;100.70;52.50;;;15.50;78.00;;;;;;5068262;28;20441;-69
2022/03/26 09:07:13;;;;;;;104.75;52.70;;;15.60;76.10;;;;;;5088730;28;20835;-66
2022/03/26 09:09:39;;;;;;;97.60;51.97;;;15.80;75.60;;;;;;5066997;28;20421;-67
2022/03/26 09:12:05;;;;;;;97.78;49.40;;;15.90;75.90;;;;;;5085712;28;20418;-67
2022/03/26 09:14:31;;;;;;;102.05;51.55;;;16.00;75.10;;;;;;5053821;28;20505;-70
2022/03/26 09:16:57;;;;;;;100.35;50.38;;;16.20;72.10;;;;;;5085728;28;20428;-66
2022/03/26 09:19:22;;;;;;;101.60;52.63;;;16.40;73.00;;;;;;5087910;28;20459;-68
2022/03/26 09:21:49;;;;;;;101.77;52.67;;;16.50;73.00;;;;;;5089983;28;20390;-69
2022/03/26 09:24:16;;;;;;;89.18;47.28;;;16.70;71.40;;;;;;5086331;28;20832;-68
2022/03/26 09:26:42;;;;;;;90.90;49.05;;;16.80;73.30;;;;;;5086297;28;20405;-66
2022/03/26 09:29:08;;;;;;;100.38;50.40;;;16.90;73.00;;;;;;5086790;28;20482;-67
2022/03/26 09:31:34;;;;;;;90.45;48.40;;;16.90;72.50;;;;;;5068997;28;20516;-69
2022/03/26 09:34:00;;;;;;;100.47;49.90;;;17.00;72.60;;;;;;5084577;28;20871;-66
2022/03/26 09:36:25;;;;;;;76.38;42.33;;;17.00;72.80;;;;;;5081099;28;20495;-70
2022/03/26 09:38:51;;;;;;;92.07;46.72;;;17.10;73.70;;;;;;5087910;28;20415;-70
2022/03/26 09:41:17;;;;;;;88.43;45.97;;;17.20;70.70;;;;;;5084854;28;20407;-71
2022/03/26 09:43:43;;;;;;;86.53;43.83;;;17.30;71.10;;;;;;5086690;28;20508;-69
2022/03/26 09:46:11;;;;;;;85.17;43.50;;;17.30;72.00;;;;;;5088131;28;20411;-70
2022/03/26 09:48:39;;;;;;;79.13;40.83;;;17.40;69.80;;;;;;5087659;28;20424;-68
2022/03/26 09:51:05;;;;;;;89.13;44.72;;;17.40;71.10;;;;;;5084137;28;21415;-69
2022/03/26 09:53:31;;;;;;;84.40;41.53;;;17.60;65.80;;;;;;5087399;28;20494;-68
2022/03/26 09:55:57;;;;;;;76.88;40.88;;;17.70;67.20;;;;;;5083807;28;20448;-66
2022/03/26 09:58:23;;;;;;;83.30;43.43;;;17.90;69.30;;;;;;5068363;28;20442;-70
2022/03/26 10:00:49;;;;;;;81.70;42.58;;;18.00;65.30;;;;;;5086406;28;20941;-67
2022/03/26 10:03:16;;;;;;;86.47;42.47;;;18.30;64.40;;;;;;5086780;28;20205;-70
2022/03/26 10:05:42;;;;;;;83.55;40.88;;;17.90;66.50;;;;;;5070521;28;20650;-70
2022/03/26 10:08:20;;;;;;;85.05;40.67;;;17.70;69.20;;;;;;5087935;28;20188;-70
2022/03/26 10:10:47;;;;;;;88.80;43.22;;;17.70;70.30;;;;;;5085478;28;20178;-70
2022/03/26 10:13:39;;;;;;;80.03;38.28;;;17.70;69.90;;;;;;5086889;28;20186;-68
2022/03/26 10:16:11;;;;;;;79.25;38.70;;;17.80;70.20;;;;;;5070293;28;20181;-68
2022/03/26 10:18:43;;;;;;;83.65;39.28;;;18.00;70.00;;;;;;5055110;28;20209;-68
2022/03/26 10:21:17;;;;;;;72.00;36.75;;;18.10;67.90;;;;;;5087537;28;20190;-68
2022/03/26 10:23:48;;;;;;;86.15;42.35;;;18.20;68.50;;;;;;5086349;28;20237;-69
2022/03/26 10:26:22;;;;;;;86.10;43.17;;;18.30;67.70;;;;;;5066639;28;20657;-69
2022/03/26 10:28:53;;;;;;;84.00;39.38;;;18.40;66.40;;;;;;5087958;28;20629;-70
2022/03/26 10:34:13;;;;;;;84.65;39.13;;;18.70;64.30;;;;;;5085189;28;20197;-69
2022/03/26 10:36:54;;;;;;;92.68;42.70;;;18.80;63.40;;;;;;5066657;28;20190;-69
2022/03/26 10:39:30;;;;;;;80.73;40.73;;;18.90;63.30;;;;;;5085839;28;20221;-68
2022/03/26 10:41:56;;;;;;;72.57;36.53;;;19.00;63.10;;;;;;5052559;28;20272;-68
2022/03/26 10:44:30;;;;;;;83.85;38.40;;;19.10;63.80;;;;;;5088349;28;20193;-70
2022/03/26 10:46:57;;;;;;;;;;;19.20;62.40;;;;;;5068773;28;20028;-70
2022/03/26 10:49:25;;;;;;;;;;;19.30;62.90;;;;;;5070070;28;19961;-69
2022/03/26 10:51:51;;;;;;;;;;;19.40;63.60;;;;;;5087889;28;19979;-68
2022/03/26 10:54:16;;;;;;;;;;;19.50;64.30;;;;;;5070334;28;20003;-66
2022/03/26 10:56:42;;;;;;;;;;;19.60;64.90;;;;;;5085345;28;19999;-69
2022/03/26 10:59:08;;;;;;;;;;;19.90;64.40;;;;;;5088966;28;20286;-69
2022/03/26 11:01:34;;;;;;;;;;;20.30;62.80;;;;;;5082560;28;19912;-67
2022/03/26 11:04:00;;;;;;;;;;;22.20;50.80;;;;;;5068373;28;20775;-68
2022/03/26 11:06:26;;;;;;;;;;;23.70;47.20;;;;;;5085573;28;19912;-68
2022/03/26 11:08:59;;;;;;;;;;;24.80;44.10;;;;;;5086133;28;19961;-68
2022/03/26 11:11:26;;;;;;;;;;;25.60;41.80;;;;;;5067295;28;19951;-68
2022/03/26 11:13:52;;;;;;;;;;;26.40;39.00;;;;;;5059265;28;19908;-67
2022/03/26 11:16:30;;;;;;;;;;;27.00;37.60;;;;;;5084717;28;19919;-69
2022/03/26 11:19:18;;;;;;;;;;;27.50;38.50;;;;;;5071365;28;19912;-66
2022/03/26 11:22:01;;;;;;;;;;;28.00;36.00;;;;;;5067360;28;20303;-69
2022/03/26 11:25:02;;;;;;;;;;;28.40;35.20;;;;;;5081835;28;19920;-69
2022/03/26 11:27:40;;;;;;;;;;;28.70;34.10;;;;;;4995122;28;19909;-69
2022/03/26 11:30:05;;;;;;;;;;;29.00;33.60;;;;;;5078620;28;19912;-69
2022/03/26 11:32:31;;;;;;;;;;;29.30;33.10;;;;;;5086480;28;19911;-68
2022/03/26 11:35:00;;;;;;;;;;;29.50;34.30;;;;;;5089167;28;19908;-68
2022/03/26 11:37:26;;;;;;;;;;;29.70;32.20;;;;;;5068274;28;19914;-68
2022/03/26 11:39:52;;;;;;;;;;;29.80;30.90;;;;;;5088567;28;19915;-68
2022/03/26 11:42:45;;;;;;;;;;;30.00;32.50;;;;;;5087369;28;19912;-69
2022/03/26 11:51:03;;;;;;;;;;;30.70;31.50;;;;;;5066862;28;19919;-69
2022/03/26 11:53:34;;;;;;;;;;;31.00;30.00;;;;;;5087537;28;20798;-69
2022/03/26 11:56:01;;;;;;;;;;;31.10;30.00;;;;;;5085660;28;20011;-70
2022/03/26 11:58:28;;;;;;;;;;;31.30;28.90;;;;;;5086920;28;19912;-71
2022/03/26 12:00:55;;;;;;;;;;;31.50;28.80;;;;;;5085376;28;19965;-70
2022/03/26 12:03:21;;;;;;;;;;;31.80;29.00;;;;;;5091486;28;20014;-70
2022/03/26 12:08:38;;;;;;;;;;;32.20;27.90;;;;;;5090782;28;19951;-71
2022/03/26 12:11:04;;;;;;;;;;;32.50;27.70;;;;;;5070441;28;20250;-67
2022/03/26 12:13:33;;;;;;;;;;;32.80;27.20;;;;;;5074485;28;19908;-68
2022/03/26 12:15:59;;;;;;;;;;;33.00;26.60;;;;;;5089847;28;20383;-68
2022/03/26 12:18:32;;;;;;;;;;;33.10;26.00;;;;;;5057066;28;19920;-68
2022/03/26 12:21:19;;;;;;;;;;;33.20;25.80;;;;;;5089319;28;19954;-69
2022/03/26 12:23:45;;;;;;;;;;;33.20;25.70;;;;;;5091825;28;19926;-71
2022/03/26 12:26:12;;;;;;;;;;;33.20;26.40;;;;;;5087168;28;20285;-69
2022/03/26 12:28:38;;;;;;;;;;;33.30;26.90;;;;;;5073116;28;19919;-69
2022/03/26 12:31:05;;;;;;;;;;;33.30;26.20;;;;;;5085630;28;19984;-69
2022/03/26 12:33:39;;;;;;;;;;;33.30;26.80;;;;;;5089173;28;19927;-73
2022/03/26 12:36:04;;;;;;;;;;;33.30;26.10;;;;;;5090378;28;19962;-71
2022/03/26 12:38:30;;;;;;;;;;;33.20;25.10;;;;;;5090623;28;19930;-71
2022/03/26 12:40:57;;;;;;;;;;;33.10;25.40;;;;;;5088319;28;20443;-68
2022/03/26 12:43:23;;;;;;;;;;;32.90;25.90;;;;;;5089640;28;19912;-69
2022/03/26 12:45:50;;;;;;;;;;;32.70;25.60;;;;;;5088858;28;20000;-69
2022/03/26 12:48:16;;;;;;;;;;;32.50;26.80;;;;;;5073252;28;19920;-71
2022/03/26 12:50:42;;;;;;;;;;;32.30;25.90;;;;;;5088568;28;19908;-71
2022/03/26 12:53:09;;;;;;;;;;;32.10;26.30;;;;;;5090488;28;19908;-71
2022/03/26 12:55:35;;;;;;;;;;;32.00;26.90;;;;;;5071226;28;20036;-69
2022/03/26 13:00:45;;;;;;;;;;;31.80;26.50;;;;;;5089476;28;19918;-68